createdAt,value
2022-11-07T00:00:07.228Z,1.20
2022-11-07T00:00:17.387Z,1.30
2022-11-07T00:00:27.363Z,1.50
2022-11-07T00:00:37.318Z,1.70
2022-11-07T00:00:50.090Z,1.70
2022-11-07T00:00:57.343Z,1.50
2022-11-07T00:01:07.171Z,0.90
2022-11-07T00:01:17.438Z,0.80
2022-11-07T00:01:27.328Z,0.80
2022-11-07T00:01:37.208Z,1.00
2022-11-07T00:01:47.444Z,1.00
2022-11-07T00:01:57.271Z,0.90
2022-11-07T00:02:07.282Z,1.00
2022-11-07T00:02:17.481Z,1.20
2022-11-07T00:02:27.424Z,1.20
2022-11-07T00:02:37.334Z,0.80
2022-11-07T00:02:47.561Z,0.60
2022-11-07T00:02:57.451Z,1.30
2022-11-07T00:03:07.364Z,1.50
2022-11-07T00:03:17.641Z,1.40
2022-11-07T00:03:27.291Z,0.90
2022-11-07T00:03:37.327Z,0.80
2022-11-07T00:03:47.369Z,0.80
2022-11-07T00:03:57.194Z,1.20
2022-11-07T00:04:07.198Z,1.30
2022-11-07T00:04:17.347Z,1.30
2022-11-07T00:04:27.403Z,0.80
2022-11-07T00:04:37.370Z,0.80
2022-11-07T00:04:47.281Z,0.70
2022-11-07T00:04:57.476Z,0.90
2022-11-07T00:05:07.442Z,1.00
2022-11-07T00:05:17.361Z,1.00
2022-11-07T00:05:27.404Z,1.00
2022-11-07T00:05:37.244Z,0.70
2022-11-07T00:05:47.461Z,0.70
2022-11-07T00:05:57.380Z,0.60
2022-11-07T00:06:07.292Z,0.70
2022-11-07T00:06:17.176Z,1.10
2022-11-07T00:06:27.232Z,1.10
2022-11-07T00:06:37.202Z,1.10
2022-11-07T00:06:47.460Z,0.70
2022-11-07T00:06:57.193Z,1.00
2022-11-07T00:07:07.436Z,0.90
2022-11-07T00:07:17.306Z,1.00
2022-11-07T00:07:27.364Z,0.80
2022-11-07T00:07:37.210Z,0.90
2022-11-07T00:07:47.254Z,0.90
2022-11-07T00:07:57.242Z,0.90
2022-11-07T00:08:07.458Z,1.00
2022-11-07T00:08:17.253Z,1.60
2022-11-07T00:08:27.278Z,1.60
2022-11-07T00:08:37.361Z,1.40
2022-11-07T00:08:47.228Z,0.90
2022-11-07T00:08:57.439Z,0.90
2022-11-07T00:09:07.369Z,1.00
2022-11-07T00:09:17.198Z,1.00
2022-11-07T00:09:27.310Z,0.90
2022-11-07T00:09:37.339Z,0.70
2022-11-07T00:09:47.374Z,1.00
2022-11-07T00:09:57.353Z,1.50
2022-11-07T00:10:07.353Z,1.60
2022-11-07T00:10:17.296Z,2.00
2022-11-07T00:10:27.219Z,1.50
2022-11-07T00:10:37.364Z,1.60
2022-11-07T00:10:47.398Z,1.00
2022-11-07T00:10:57.250Z,1.00
2022-11-07T00:11:07.222Z,1.50
2022-11-07T00:11:17.211Z,1.30
2022-11-07T00:11:27.438Z,1.50
2022-11-07T00:11:37.294Z,1.50
2022-11-07T00:11:47.244Z,1.70
2022-11-07T00:11:57.373Z,1.40
2022-11-07T00:12:07.185Z,1.00
2022-11-07T00:12:17.282Z,1.00
2022-11-07T00:12:27.264Z,1.50
2022-11-07T00:12:37.216Z,1.60
2022-11-07T00:12:47.296Z,1.50
2022-11-07T00:12:57.163Z,0.90
2022-11-07T00:13:07.232Z,0.80
2022-11-07T00:13:17.628Z,1.10
2022-11-07T00:13:27.441Z,1.00
2022-11-07T00:13:37.413Z,1.00
2022-11-07T00:13:47.920Z,0.60
2022-11-07T00:13:57.487Z,0.80
2022-11-07T00:14:07.362Z,0.90
2022-11-07T00:14:17.405Z,1.00
2022-11-07T00:14:27.257Z,1.00
2022-11-07T00:14:37.307Z,0.90
2022-11-07T00:14:47.437Z,0.90
2022-11-07T00:14:57.338Z,0.80
2022-11-07T00:15:07.254Z,1.30
2022-11-07T00:15:17.235Z,1.30
2022-11-07T00:15:27.161Z,1.90
2022-11-07T00:15:37.279Z,1.60
2022-11-07T00:15:47.206Z,1.50
2022-11-07T00:15:57.376Z,1.20
2022-11-07T00:16:07.434Z,1.10
2022-11-07T00:16:17.312Z,1.00
2022-11-07T00:16:27.386Z,0.80
2022-11-07T00:16:37.335Z,0.90
2022-11-07T00:16:47.191Z,1.00
2022-11-07T00:16:57.405Z,1.00
2022-11-07T00:17:07.378Z,0.90
2022-11-07T00:17:17.311Z,1.00
2022-11-07T00:17:27.251Z,1.30
2022-11-07T00:17:37.408Z,1.30
2022-11-07T00:17:47.356Z,1.30
2022-11-07T00:17:57.228Z,1.00
2022-11-07T00:18:07.304Z,1.00
2022-11-07T00:18:17.488Z,1.00
2022-11-07T00:18:27.435Z,0.80
2022-11-07T00:18:37.332Z,0.90
2022-11-07T00:18:47.484Z,0.80
2022-11-07T00:18:57.258Z,0.90
2022-11-07T00:19:07.171Z,0.80
2022-11-07T00:19:17.432Z,0.70
2022-11-07T00:19:27.249Z,0.70
2022-11-07T00:19:37.321Z,0.60
2022-11-07T00:19:47.340Z,0.60
2022-11-07T00:19:57.299Z,0.60
2022-11-07T00:20:07.305Z,0.60
2022-11-07T00:20:17.283Z,0.60
2022-11-07T00:20:27.281Z,1.20
2022-11-07T00:20:37.173Z,1.60
2022-11-07T00:20:47.237Z,1.60
2022-11-07T00:20:57.386Z,1.20
2022-11-07T00:21:07.446Z,1.60
2022-11-07T00:21:17.437Z,1.70
2022-11-07T00:21:27.394Z,1.40
2022-11-07T00:21:37.190Z,0.60
2022-11-07T00:21:47.320Z,0.60
2022-11-07T00:21:57.251Z,0.90
2022-11-07T00:22:07.369Z,1.80
2022-11-07T00:22:17.150Z,1.90
2022-11-07T00:22:27.395Z,1.60
2022-11-07T00:22:37.208Z,0.70
2022-11-07T00:22:47.175Z,0.60
2022-11-07T00:22:57.194Z,0.60
2022-11-07T00:23:07.259Z,0.70
2022-11-07T00:23:17.639Z,1.10
2022-11-07T00:23:27.406Z,1.50
2022-11-07T00:23:37.167Z,1.40
2022-11-07T00:23:47.296Z,1.30
2022-11-07T00:23:57.197Z,1.90
2022-11-07T00:24:07.409Z,2.00
2022-11-07T00:24:17.346Z,1.90
2022-11-07T00:24:27.305Z,1.00
2022-11-07T00:24:37.203Z,1.00
2022-11-07T00:24:47.380Z,0.80
2022-11-07T00:24:57.234Z,1.30
2022-11-07T00:25:07.315Z,1.30
2022-11-07T00:25:17.282Z,1.80
2022-11-07T00:25:27.314Z,1.40
2022-11-07T00:25:37.266Z,1.20
2022-11-07T00:25:47.164Z,0.90
2022-11-07T00:25:57.206Z,0.70
2022-11-07T00:26:07.301Z,0.70
2022-11-07T00:26:17.435Z,1.00
2022-11-07T00:26:27.255Z,1.00
2022-11-07T00:26:37.375Z,1.30
2022-11-07T00:26:47.174Z,1.00
2022-11-07T00:26:57.460Z,1.10
2022-11-07T00:27:07.283Z,0.70
2022-11-07T00:27:17.218Z,0.80
2022-11-07T00:27:27.489Z,1.50
2022-11-07T00:27:37.363Z,1.80
2022-11-07T00:27:47.336Z,2.80
2022-11-07T00:27:57.243Z,2.10
2022-11-07T00:28:07.440Z,1.90
2022-11-07T00:28:17.324Z,0.80
2022-11-07T00:28:27.181Z,0.90
2022-11-07T00:28:37.306Z,1.10
2022-11-07T00:28:47.321Z,1.40
2022-11-07T00:28:57.350Z,1.20
2022-11-07T00:29:07.293Z,1.20
2022-11-07T00:29:17.273Z,0.80
2022-11-07T00:29:27.344Z,0.70
2022-11-07T00:29:37.396Z,0.60
2022-11-07T00:29:47.418Z,0.70
2022-11-07T00:29:57.297Z,1.00
2022-11-07T00:30:07.403Z,1.10
2022-11-07T00:30:17.449Z,1.00
2022-11-07T00:30:27.291Z,0.80
2022-11-07T00:30:37.283Z,0.60
2022-11-07T00:30:47.377Z,0.70
2022-11-07T00:30:57.169Z,0.80
2022-11-07T00:31:07.319Z,0.80
2022-11-07T00:31:17.185Z,0.70
2022-11-07T00:31:27.314Z,0.70
2022-11-07T00:31:37.289Z,0.80
2022-11-07T00:31:47.388Z,0.60
2022-11-07T00:31:57.200Z,0.70
2022-11-07T00:32:07.373Z,0.60
2022-11-07T00:32:17.358Z,0.80
2022-11-07T00:32:27.267Z,0.90
2022-11-07T00:32:37.263Z,1.00
2022-11-07T00:32:47.284Z,1.20
2022-11-07T00:33:00.218Z,1.20
2022-11-07T00:33:07.192Z,1.30
2022-11-07T00:33:17.513Z,0.90
2022-11-07T00:33:27.432Z,0.80
2022-11-07T00:33:37.195Z,0.70
2022-11-07T00:33:47.284Z,1.20
2022-11-07T00:33:57.455Z,1.30
2022-11-07T00:34:07.157Z,1.30
2022-11-07T00:34:17.413Z,0.90
2022-11-07T00:34:27.409Z,0.80
2022-11-07T00:34:37.323Z,0.80
2022-11-07T00:34:47.252Z,0.70
2022-11-07T00:34:57.387Z,1.10
2022-11-07T00:35:07.368Z,1.40
2022-11-07T00:35:17.387Z,1.40
2022-11-07T00:35:27.398Z,1.10
2022-11-07T00:35:37.194Z,0.80
2022-11-07T00:35:47.334Z,0.80
2022-11-07T00:35:57.360Z,0.90
2022-11-07T00:36:07.226Z,1.40
2022-11-07T00:36:17.219Z,1.30
2022-11-07T00:36:27.207Z,1.20
2022-11-07T00:36:37.157Z,0.90
2022-11-07T00:36:47.248Z,1.30
2022-11-07T00:36:57.324Z,1.40
2022-11-07T00:37:07.311Z,1.70
2022-11-07T00:37:17.414Z,1.50
2022-11-07T00:37:27.451Z,1.70
2022-11-07T00:37:37.370Z,1.50
2022-11-07T00:37:47.206Z,1.30
2022-11-07T00:37:57.408Z,1.00
2022-11-07T00:38:07.233Z,0.70
2022-11-07T00:38:17.338Z,0.70
2022-11-07T00:38:27.474Z,0.80
2022-11-07T00:38:37.188Z,1.20
2022-11-07T00:38:47.168Z,1.20
2022-11-07T00:38:57.174Z,1.00
2022-11-07T00:39:07.429Z,0.80
2022-11-07T00:39:17.252Z,0.90
2022-11-07T00:39:27.277Z,1.40
2022-11-07T00:39:37.299Z,1.30
2022-11-07T00:39:47.220Z,1.30
2022-11-07T00:39:57.352Z,1.80
2022-11-07T00:40:07.208Z,2.00
2022-11-07T00:40:17.309Z,2.50
2022-11-07T00:40:27.440Z,2.10
2022-11-07T00:40:37.471Z,1.90
2022-11-07T00:40:47.327Z,1.30
2022-11-07T00:40:57.374Z,0.80
2022-11-07T00:41:07.239Z,0.80
2022-11-07T00:41:17.487Z,0.90
2022-11-07T00:41:27.269Z,0.90
2022-11-07T00:41:37.345Z,1.60
2022-11-07T00:41:47.453Z,1.80
2022-11-07T00:41:57.220Z,1.80
2022-11-07T00:42:07.383Z,1.20
2022-11-07T00:42:17.420Z,1.10
2022-11-07T00:42:27.299Z,1.10
2022-11-07T00:42:37.399Z,1.00
2022-11-07T00:42:47.476Z,0.80
2022-11-07T00:42:57.207Z,0.90
2022-11-07T00:43:07.385Z,1.20
2022-11-07T00:43:17.447Z,1.30
2022-11-07T00:43:27.247Z,1.60
2022-11-07T00:43:37.346Z,1.40
2022-11-07T00:43:47.237Z,1.40
2022-11-07T00:43:57.186Z,1.00
2022-11-07T00:44:07.381Z,1.10
2022-11-07T00:44:17.281Z,1.10
2022-11-07T00:44:27.330Z,1.20
2022-11-07T00:44:37.269Z,1.20
2022-11-07T00:44:47.292Z,1.10
2022-11-07T00:44:57.276Z,1.10
2022-11-07T00:45:07.290Z,0.80
2022-11-07T00:45:17.352Z,1.70
2022-11-07T00:45:27.455Z,1.70
2022-11-07T00:45:37.297Z,1.70
2022-11-07T00:45:47.229Z,1.50
2022-11-07T00:45:57.203Z,1.30
2022-11-07T00:46:07.330Z,1.60
2022-11-07T00:46:17.301Z,1.00
2022-11-07T00:46:27.299Z,1.20
2022-11-07T00:46:37.408Z,1.00
2022-11-07T00:46:47.383Z,0.80
2022-11-07T00:46:57.201Z,1.10
2022-11-07T00:47:07.254Z,1.00
2022-11-07T00:47:17.476Z,1.00
2022-11-07T00:47:27.171Z,0.90
2022-11-07T00:47:37.353Z,0.90
2022-11-07T00:47:47.382Z,0.90
2022-11-07T00:47:57.234Z,0.90
2022-11-07T00:48:07.354Z,0.90
2022-11-07T00:48:17.410Z,1.00
2022-11-07T00:48:27.328Z,0.60
2022-11-07T00:48:37.208Z,1.00
2022-11-07T00:48:47.404Z,1.10
2022-11-07T00:48:57.150Z,1.40
2022-11-07T00:49:07.404Z,1.40
2022-11-07T00:49:17.293Z,1.30
2022-11-07T00:49:27.173Z,1.50
2022-11-07T00:49:37.234Z,1.20
2022-11-07T00:49:47.381Z,1.20
2022-11-07T00:49:57.207Z,1.00
2022-11-07T00:50:07.438Z,1.00
2022-11-07T00:50:17.330Z,0.90
2022-11-07T00:50:27.445Z,0.60
2022-11-07T00:50:37.481Z,0.70
2022-11-07T00:50:47.293Z,0.90
2022-11-07T00:50:57.329Z,1.00
2022-11-07T00:51:07.234Z,1.00
2022-11-07T00:51:17.408Z,0.80
2022-11-07T00:51:27.336Z,0.90
2022-11-07T00:51:37.398Z,1.00
2022-11-07T00:51:47.323Z,1.00
2022-11-07T00:51:57.172Z,1.10
2022-11-07T00:52:07.208Z,0.80
2022-11-07T00:52:17.190Z,0.70
2022-11-07T00:52:27.334Z,0.60
2022-11-07T00:52:37.285Z,0.60
2022-11-07T00:52:47.277Z,0.60
2022-11-07T00:52:57.247Z,1.30
2022-11-07T00:53:07.219Z,1.50
2022-11-07T00:53:17.739Z,1.90
2022-11-07T00:53:27.380Z,1.20
2022-11-07T00:53:37.175Z,1.10
2022-11-07T00:53:47.445Z,1.00
2022-11-07T00:53:57.373Z,1.00
2022-11-07T00:54:07.406Z,1.60
2022-11-07T00:54:17.366Z,1.40
2022-11-07T00:54:27.297Z,1.40
2022-11-07T00:54:37.389Z,1.20
2022-11-07T00:54:47.448Z,1.30
2022-11-07T00:54:57.382Z,1.00
2022-11-07T00:55:07.184Z,0.60
2022-11-07T00:55:17.397Z,0.60
2022-11-07T00:55:27.354Z,0.80
2022-11-07T00:55:37.441Z,1.00
2022-11-07T00:55:47.165Z,1.10
2022-11-07T00:55:57.225Z,1.70
2022-11-07T00:56:07.339Z,1.50
2022-11-07T00:56:17.329Z,1.30
2022-11-07T00:56:27.314Z,0.70
2022-11-07T00:56:37.341Z,0.70
2022-11-07T00:56:47.372Z,0.80
2022-11-07T00:56:57.535Z,1.20
2022-11-07T00:57:07.409Z,1.50
2022-11-07T00:57:17.285Z,1.30
2022-11-07T00:57:27.312Z,0.80
2022-11-07T00:57:37.264Z,0.80
2022-11-07T00:57:47.487Z,1.00
2022-11-07T00:57:57.184Z,1.30
2022-11-07T00:58:11.177Z,1.30
2022-11-07T00:58:17.271Z,2.00
2022-11-07T00:58:27.259Z,3.00
2022-11-07T00:58:37.407Z,2.90
2022-11-07T00:58:47.314Z,2.10
2022-11-07T00:58:57.433Z,0.80
2022-11-07T00:59:07.257Z,0.90
2022-11-07T00:59:17.317Z,0.80
2022-11-07T00:59:27.426Z,1.40
2022-11-07T00:59:37.376Z,1.70
2022-11-07T00:59:47.449Z,1.70
2022-11-07T00:59:57.360Z,1.20
2022-11-07T01:00:07.417Z,0.70
2022-11-07T01:00:17.191Z,0.60
2022-11-07T01:00:27.239Z,0.60
2022-11-07T01:00:37.299Z,0.70
2022-11-07T01:00:47.486Z,1.00
2022-11-07T01:00:57.251Z,0.90
2022-11-07T01:01:07.403Z,1.10
2022-11-07T01:01:17.370Z,1.50
2022-11-07T01:01:27.529Z,1.60
2022-11-07T01:01:37.720Z,1.40
2022-11-07T01:01:47.363Z,1.50
2022-11-07T01:01:57.337Z,1.10
2022-11-07T01:02:07.568Z,1.60
2022-11-07T01:02:17.487Z,1.30
2022-11-07T01:02:27.450Z,1.10
2022-11-07T01:02:37.468Z,1.20
2022-11-07T01:02:47.516Z,1.30
2022-11-07T01:02:57.535Z,1.40
2022-11-07T01:03:07.235Z,1.00
2022-11-07T01:03:17.468Z,0.90
2022-11-07T01:03:27.269Z,1.40
2022-11-07T01:03:37.317Z,1.30
2022-11-07T01:03:47.409Z,1.60
2022-11-07T01:03:57.384Z,1.30
2022-11-07T01:04:07.249Z,1.20
2022-11-07T01:04:17.195Z,1.10
2022-11-07T01:04:27.449Z,0.80
2022-11-07T01:04:37.217Z,0.90
2022-11-07T01:04:47.472Z,0.70
2022-11-07T01:04:57.279Z,0.70
2022-11-07T01:05:07.371Z,0.60
2022-11-07T01:05:17.359Z,0.80
2022-11-07T01:05:27.225Z,0.70
2022-11-07T01:05:37.401Z,0.90
2022-11-07T01:05:47.416Z,0.80
2022-11-07T01:05:57.179Z,1.50
2022-11-07T01:06:07.438Z,1.50
2022-11-07T01:06:17.232Z,1.90
2022-11-07T01:06:27.438Z,1.10
2022-11-07T01:06:37.460Z,1.10
2022-11-07T01:06:47.449Z,0.90
2022-11-07T01:06:57.440Z,1.20
2022-11-07T01:07:07.461Z,0.90
2022-11-07T01:07:17.311Z,0.80
2022-11-07T01:07:27.164Z,1.00
2022-11-07T01:07:37.419Z,1.00
2022-11-07T01:07:47.331Z,1.10
2022-11-07T01:07:57.365Z,0.70
2022-11-07T01:08:07.458Z,0.80
2022-11-07T01:08:17.297Z,0.70
2022-11-07T01:08:27.343Z,1.00
2022-11-07T01:08:37.278Z,1.30
2022-11-07T01:08:47.160Z,1.20
2022-11-07T01:08:57.420Z,1.20
2022-11-07T01:09:07.375Z,0.90
2022-11-07T01:09:17.321Z,1.10
2022-11-07T01:09:27.396Z,1.10
2022-11-07T01:09:37.326Z,1.20
2022-11-07T01:09:47.457Z,0.70
2022-11-07T01:09:57.184Z,1.00
2022-11-07T01:10:07.323Z,1.10
2022-11-07T01:10:17.341Z,1.30
2022-11-07T01:10:27.441Z,0.90
2022-11-07T01:10:37.285Z,0.90
2022-11-07T01:10:47.436Z,0.60
2022-11-07T01:10:57.436Z,0.60
2022-11-07T01:11:07.342Z,1.00
2022-11-07T01:11:17.264Z,1.10
2022-11-07T01:11:27.159Z,1.30
2022-11-07T01:11:37.259Z,0.80
2022-11-07T01:11:47.338Z,0.70
2022-11-07T01:11:57.259Z,0.60
2022-11-07T01:12:07.169Z,0.90
2022-11-07T01:12:17.325Z,1.10
2022-11-07T01:12:27.413Z,1.20
2022-11-07T01:12:37.407Z,0.80
2022-11-07T01:12:47.318Z,0.80
2022-11-07T01:12:57.268Z,0.70
2022-11-07T01:13:07.237Z,0.70
2022-11-07T01:13:17.519Z,1.10
2022-11-07T01:13:27.213Z,1.10
2022-11-07T01:13:37.164Z,1.20
2022-11-07T01:13:47.271Z,0.80
2022-11-07T01:13:57.200Z,0.80
2022-11-07T01:14:07.287Z,0.80
2022-11-07T01:14:17.360Z,0.70
2022-11-07T01:14:27.199Z,0.60
2022-11-07T01:14:37.355Z,0.70
2022-11-07T01:14:47.193Z,0.60
2022-11-07T01:14:57.268Z,0.80
2022-11-07T01:15:07.225Z,0.80
2022-11-07T01:15:17.291Z,0.80
2022-11-07T01:15:27.458Z,0.60
2022-11-07T01:15:37.226Z,0.90
2022-11-07T01:15:47.385Z,1.20
2022-11-07T01:15:57.367Z,1.10
2022-11-07T01:16:07.266Z,1.40
2022-11-07T01:16:17.343Z,1.70
2022-11-07T01:16:27.310Z,1.60
2022-11-07T01:16:37.311Z,1.30
2022-11-07T01:16:47.176Z,0.80
2022-11-07T01:16:57.384Z,1.30
2022-11-07T01:17:07.238Z,1.20
2022-11-07T01:17:17.265Z,1.30
2022-11-07T01:17:27.423Z,1.10
2022-11-07T01:17:37.234Z,1.10
2022-11-07T01:17:47.305Z,0.90
2022-11-07T01:17:57.372Z,0.70
2022-11-07T01:18:07.384Z,0.90
2022-11-07T01:18:17.410Z,0.90
2022-11-07T01:18:27.410Z,0.80
2022-11-07T01:18:37.370Z,0.60
2022-11-07T01:18:47.290Z,1.20
2022-11-07T01:18:57.473Z,1.30
2022-11-07T01:19:07.208Z,1.40
2022-11-07T01:19:17.270Z,0.70
2022-11-07T01:19:27.313Z,0.60
2022-11-07T01:19:37.208Z,0.70
2022-11-07T01:19:47.233Z,0.90
2022-11-07T01:19:57.263Z,1.70
2022-11-07T01:20:07.208Z,1.70
2022-11-07T01:20:17.354Z,1.60
2022-11-07T01:20:27.242Z,0.90
2022-11-07T01:20:37.174Z,0.70
2022-11-07T01:20:47.289Z,0.70
2022-11-07T01:20:57.247Z,0.60
2022-11-07T01:21:09.803Z,1.40
2022-11-07T01:21:17.460Z,1.40
2022-11-07T01:21:27.398Z,1.70
2022-11-07T01:21:37.292Z,1.30
2022-11-07T01:21:47.319Z,1.30
2022-11-07T01:21:57.254Z,0.90
2022-11-07T01:22:07.399Z,0.50
2022-11-07T01:22:17.382Z,0.80
2022-11-07T01:22:27.351Z,0.80
2022-11-07T01:22:37.385Z,1.20
2022-11-07T01:22:47.359Z,0.90
2022-11-07T01:22:57.329Z,0.90
2022-11-07T01:23:07.474Z,0.60
2022-11-07T01:23:17.909Z,0.80
2022-11-07T01:23:27.167Z,1.00
2022-11-07T01:23:37.407Z,1.00
2022-11-07T01:23:47.369Z,1.40
2022-11-07T01:23:57.251Z,1.20
2022-11-07T01:24:07.370Z,1.10
2022-11-07T01:24:17.388Z,1.40
2022-11-07T01:24:27.314Z,1.70
2022-11-07T01:24:37.224Z,1.70
2022-11-07T01:24:47.153Z,1.00
2022-11-07T01:24:57.484Z,1.30
2022-11-07T01:25:07.282Z,1.30
2022-11-07T01:25:17.405Z,1.70
2022-11-07T01:25:27.277Z,1.50
2022-11-07T01:25:37.207Z,1.50
2022-11-07T01:25:47.276Z,1.50
2022-11-07T01:25:57.376Z,1.40
2022-11-07T01:26:07.348Z,1.40
2022-11-07T01:26:17.321Z,1.00
2022-11-07T01:26:27.403Z,1.40
2022-11-07T01:26:37.453Z,1.20
2022-11-07T01:26:47.461Z,1.30
2022-11-07T01:26:57.432Z,0.80
2022-11-07T01:27:07.440Z,0.90
2022-11-07T01:27:17.263Z,0.80
2022-11-07T01:27:27.341Z,0.70
2022-11-07T01:27:37.412Z,0.80
2022-11-07T01:27:47.378Z,0.90
2022-11-07T01:27:57.235Z,1.00
2022-11-07T01:28:07.151Z,0.80
2022-11-07T01:28:17.191Z,0.70
2022-11-07T01:28:27.199Z,0.50
2022-11-07T01:28:37.273Z,0.40
2022-11-07T01:28:47.317Z,0.60
2022-11-07T01:28:57.409Z,0.80
2022-11-07T01:29:07.313Z,1.00
2022-11-07T01:29:17.289Z,0.90
2022-11-07T01:29:27.180Z,0.80
2022-11-07T01:29:37.224Z,0.80
2022-11-07T01:29:47.396Z,0.80
2022-11-07T01:29:57.476Z,0.90
2022-11-07T01:30:07.442Z,0.80
2022-11-07T01:30:17.294Z,0.80
2022-11-07T01:30:27.236Z,1.70
2022-11-07T01:30:37.437Z,2.50
2022-11-07T01:30:47.301Z,3.00
2022-11-07T01:30:57.310Z,2.00
2022-11-07T01:31:07.266Z,1.40
2022-11-07T01:31:17.235Z,0.80
2022-11-07T01:31:27.314Z,0.80
2022-11-07T01:31:37.419Z,0.70
2022-11-07T01:31:47.430Z,0.70
2022-11-07T01:31:57.444Z,0.70
2022-11-07T01:32:07.364Z,0.70
2022-11-07T01:32:17.440Z,0.70
2022-11-07T01:32:27.205Z,0.80
2022-11-07T01:32:37.366Z,0.60
2022-11-07T01:32:47.168Z,0.70
2022-11-07T01:32:57.218Z,0.60
2022-11-07T01:33:07.382Z,0.70
2022-11-07T01:33:17.684Z,1.20
2022-11-07T01:33:27.174Z,1.60
2022-11-07T01:33:37.226Z,1.60
2022-11-07T01:33:47.336Z,1.40
2022-11-07T01:33:57.435Z,1.70
2022-11-07T01:34:07.354Z,1.70
2022-11-07T01:34:17.204Z,1.20
2022-11-07T01:34:27.339Z,0.80
2022-11-07T01:34:37.270Z,0.80
2022-11-07T01:34:47.309Z,0.90
2022-11-07T01:34:57.420Z,1.10
2022-11-07T01:35:07.313Z,0.90
2022-11-07T01:35:17.272Z,0.80
2022-11-07T01:35:27.328Z,0.60
2022-11-07T01:35:37.325Z,0.80
2022-11-07T01:35:47.229Z,1.20
2022-11-07T01:35:58.628Z,1.00
2022-11-07T01:36:07.228Z,0.90
2022-11-07T01:36:17.242Z,0.60
2022-11-07T01:36:27.255Z,0.60
2022-11-07T01:36:37.385Z,0.50
2022-11-07T01:36:47.228Z,0.60
2022-11-07T01:36:57.223Z,0.90
2022-11-07T01:37:07.349Z,0.80
2022-11-07T01:37:17.371Z,0.80
2022-11-07T01:37:27.323Z,0.60
2022-11-07T01:37:37.458Z,0.90
2022-11-07T01:37:47.303Z,0.90
2022-11-07T01:37:57.176Z,0.80
2022-11-07T01:38:07.412Z,0.60
2022-11-07T01:38:17.285Z,0.70
2022-11-07T01:38:27.323Z,0.70
2022-11-07T01:38:37.239Z,0.80
2022-11-07T01:38:47.329Z,1.00
2022-11-07T01:38:57.174Z,1.10
2022-11-07T01:39:07.285Z,1.50
2022-11-07T01:39:17.179Z,1.30
2022-11-07T01:39:27.404Z,1.10
2022-11-07T01:39:37.207Z,0.60
2022-11-07T01:39:47.404Z,0.60
2022-11-07T01:39:57.170Z,0.60
2022-11-07T01:40:07.170Z,0.70
2022-11-07T01:40:17.450Z,0.50
2022-11-07T01:40:27.457Z,0.50
2022-11-07T01:40:37.161Z,1.30
2022-11-07T01:40:47.412Z,1.40
2022-11-07T01:40:57.394Z,1.30
2022-11-07T01:41:07.226Z,0.80
2022-11-07T01:41:17.425Z,0.80
2022-11-07T01:41:27.375Z,1.30
2022-11-07T01:41:37.206Z,1.20
2022-11-07T01:41:47.205Z,1.30
2022-11-07T01:41:57.295Z,0.80
2022-11-07T01:42:07.266Z,1.30
2022-11-07T01:42:17.279Z,2.00
2022-11-07T01:42:27.286Z,2.10
2022-11-07T01:42:37.226Z,1.40
2022-11-07T01:42:47.387Z,1.40
2022-11-07T01:42:57.329Z,1.20
2022-11-07T01:43:07.432Z,1.20
2022-11-07T01:43:17.890Z,0.60
2022-11-07T01:43:27.278Z,0.90
2022-11-07T01:43:37.168Z,0.90
2022-11-07T01:43:47.302Z,0.70
2022-11-07T01:43:57.332Z,0.60
2022-11-07T01:44:07.175Z,0.60
2022-11-07T01:44:17.324Z,0.80
2022-11-07T01:44:27.201Z,1.30
2022-11-07T01:44:37.301Z,1.50
2022-11-07T01:44:47.346Z,1.50
2022-11-07T01:44:57.429Z,1.10
2022-11-07T01:45:07.311Z,1.20
2022-11-07T01:45:17.455Z,1.00
2022-11-07T01:45:27.307Z,0.80
2022-11-07T01:45:37.194Z,0.50
2022-11-07T01:45:47.168Z,0.50
2022-11-07T01:45:57.198Z,0.60
2022-11-07T01:46:07.415Z,0.60
2022-11-07T01:46:17.440Z,0.80
2022-11-07T01:46:27.169Z,0.80
2022-11-07T01:46:37.371Z,0.90
2022-11-07T01:46:47.414Z,0.70
2022-11-07T01:46:57.217Z,0.70
2022-11-07T01:47:07.253Z,0.80
2022-11-07T01:47:17.178Z,0.90
2022-11-07T01:47:27.445Z,1.20
2022-11-07T01:47:37.202Z,1.00
2022-11-07T01:47:47.219Z,1.00
2022-11-07T01:47:57.203Z,1.20
2022-11-07T01:48:07.368Z,1.40
2022-11-07T01:48:17.290Z,1.40
2022-11-07T01:48:27.413Z,0.80
2022-11-07T01:48:37.200Z,1.30
2022-11-07T01:48:47.168Z,1.30
2022-11-07T01:48:57.201Z,1.20
2022-11-07T01:49:07.431Z,0.60
2022-11-07T01:49:17.456Z,0.70
2022-11-07T01:49:27.196Z,0.80
2022-11-07T01:49:37.344Z,1.60
2022-11-07T01:49:47.440Z,1.60
2022-11-07T01:49:57.238Z,1.60
2022-11-07T01:50:07.407Z,0.80
2022-11-07T01:50:17.407Z,0.80
2022-11-07T01:50:27.214Z,1.00
2022-11-07T01:50:37.386Z,1.10
2022-11-07T01:50:47.222Z,1.00
2022-11-07T01:50:57.377Z,0.70
2022-11-07T01:51:07.173Z,0.70
2022-11-07T01:51:17.301Z,0.60
2022-11-07T01:51:27.422Z,0.70
2022-11-07T01:51:37.406Z,0.70
2022-11-07T01:51:47.233Z,0.80
2022-11-07T01:51:57.275Z,1.00
2022-11-07T01:52:07.174Z,1.00
2022-11-07T01:52:17.299Z,0.80
2022-11-07T01:52:27.163Z,0.60
2022-11-07T01:52:37.190Z,0.60
2022-11-07T01:52:47.306Z,0.70
2022-11-07T01:52:57.287Z,0.70
2022-11-07T01:53:07.381Z,0.80
2022-11-07T01:53:17.570Z,0.80
2022-11-07T01:53:27.343Z,1.10
2022-11-07T01:53:37.414Z,1.00
2022-11-07T01:53:47.276Z,1.20
2022-11-07T01:53:57.392Z,1.50
2022-11-07T01:54:07.473Z,1.50
2022-11-07T01:54:17.473Z,1.40
2022-11-07T01:54:27.239Z,0.80
2022-11-07T01:54:37.285Z,0.70
2022-11-07T01:54:47.238Z,0.70
2022-11-07T01:54:57.348Z,0.70
2022-11-07T01:55:07.331Z,0.90
2022-11-07T01:55:17.196Z,1.00
2022-11-07T01:55:27.450Z,1.00
2022-11-07T01:55:37.430Z,0.90
2022-11-07T01:55:47.441Z,0.90
2022-11-07T01:55:57.172Z,0.90
2022-11-07T01:56:07.295Z,1.00
2022-11-07T01:56:17.252Z,1.10
2022-11-07T01:56:27.267Z,1.10
2022-11-07T01:56:37.351Z,0.90
2022-11-07T01:56:47.334Z,1.00
2022-11-07T01:56:57.415Z,1.00
2022-11-07T01:57:07.196Z,0.90
2022-11-07T01:57:17.285Z,0.70
2022-11-07T01:57:27.300Z,0.80
2022-11-07T01:57:37.386Z,0.70
2022-11-07T01:57:47.337Z,0.90
2022-11-07T01:57:57.353Z,0.60
2022-11-07T01:58:07.207Z,0.80
2022-11-07T01:58:17.327Z,0.90
2022-11-07T01:58:27.360Z,1.00
2022-11-07T01:58:37.399Z,0.90
2022-11-07T01:58:47.393Z,1.00
2022-11-07T01:58:57.296Z,1.10
2022-11-07T01:59:07.359Z,1.10
2022-11-07T01:59:17.168Z,1.00
2022-11-07T01:59:27.474Z,0.60
2022-11-07T01:59:37.149Z,0.60
2022-11-07T01:59:47.443Z,0.60
2022-11-07T01:59:57.366Z,0.60
2022-11-07T02:00:07.338Z,0.60
2022-11-07T02:00:17.391Z,1.20
2022-11-07T02:00:27.508Z,1.10
2022-11-07T02:00:37.398Z,1.10
2022-11-07T02:00:47.418Z,1.30
2022-11-07T02:00:57.236Z,1.20
2022-11-07T02:01:07.348Z,1.40
2022-11-07T02:01:17.497Z,0.60
2022-11-07T02:01:27.465Z,0.70
2022-11-07T02:01:37.557Z,0.70
2022-11-07T02:01:47.455Z,0.80
2022-11-07T02:01:57.455Z,1.10
2022-11-07T02:02:07.486Z,1.00
2022-11-07T02:02:17.515Z,0.90
2022-11-07T02:02:27.579Z,0.60
2022-11-07T02:02:37.506Z,0.70
2022-11-07T02:02:47.625Z,0.70
2022-11-07T02:02:57.418Z,0.80
2022-11-07T02:03:07.166Z,0.80
2022-11-07T02:03:17.729Z,1.20
2022-11-07T02:03:27.189Z,1.10
2022-11-07T02:03:37.180Z,1.20
2022-11-07T02:03:47.339Z,0.70
2022-11-07T02:03:57.218Z,0.70
2022-11-07T02:04:07.286Z,0.60
2022-11-07T02:04:17.261Z,0.60
2022-11-07T02:04:27.355Z,0.60
2022-11-07T02:04:37.370Z,0.70
2022-11-07T02:04:47.399Z,0.70
2022-11-07T02:04:57.483Z,0.80
2022-11-07T02:05:07.194Z,0.70
2022-11-07T02:05:17.315Z,0.50
2022-11-07T02:05:27.484Z,0.60
2022-11-07T02:05:37.262Z,0.70
2022-11-07T02:05:47.219Z,1.00
2022-11-07T02:05:57.491Z,1.00
2022-11-07T02:06:07.351Z,1.20
2022-11-07T02:06:17.420Z,1.00
2022-11-07T02:06:27.248Z,0.80
2022-11-07T02:06:37.285Z,0.60
2022-11-07T02:06:47.379Z,0.60
2022-11-07T02:06:57.261Z,0.80
2022-11-07T02:07:07.178Z,1.70
2022-11-07T02:07:17.432Z,2.00
2022-11-07T02:07:27.271Z,1.80
2022-11-07T02:07:37.381Z,1.20
2022-11-07T02:07:47.401Z,0.90
2022-11-07T02:07:57.383Z,0.90
2022-11-07T02:08:07.369Z,1.00
2022-11-07T02:08:17.254Z,1.20
2022-11-07T02:08:27.464Z,1.10
2022-11-07T02:08:37.249Z,0.70
2022-11-07T02:08:47.290Z,0.80
2022-11-07T02:08:57.202Z,1.10
2022-11-07T02:09:07.417Z,1.10
2022-11-07T02:09:17.212Z,1.00
2022-11-07T02:09:27.295Z,1.30
2022-11-07T02:09:37.378Z,1.60
2022-11-07T02:09:47.301Z,1.40
2022-11-07T02:09:57.296Z,1.20
2022-11-07T02:10:07.380Z,1.10
2022-11-07T02:10:17.400Z,1.30
2022-11-07T02:10:27.182Z,1.30
2022-11-07T02:10:37.422Z,1.00
2022-11-07T02:10:47.377Z,0.80
2022-11-07T02:10:57.417Z,0.80
2022-11-07T02:11:07.228Z,1.00
2022-11-07T02:11:17.210Z,1.00
2022-11-07T02:11:27.445Z,0.90
2022-11-07T02:11:37.233Z,1.80
2022-11-07T02:11:47.282Z,1.60
2022-11-07T02:11:57.260Z,1.50
2022-11-07T02:12:07.404Z,0.60
2022-11-07T02:12:17.804Z,0.80
2022-11-07T02:12:27.219Z,1.90
2022-11-07T02:12:37.355Z,1.80
2022-11-07T02:12:47.230Z,1.80
2022-11-07T02:12:57.471Z,0.70
2022-11-07T02:13:07.260Z,0.60